createdAt,value
2019-02-07T00:00:25.263Z,0.00
2019-02-07T00:01:25.284Z,0.00
2019-02-07T00:02:25.278Z,0.00
2019-02-07T00:03:25.234Z,0.00
2019-02-07T00:04:25.218Z,0.00
2019-02-07T00:05:25.222Z,0.00
2019-02-07T00:06:25.195Z,0.00
2019-02-07T00:07:25.203Z,0.00
2019-02-07T00:08:25.199Z,0.00
2019-02-07T00:09:25.182Z,0.00
2019-02-07T00:10:25.186Z,0.00
2019-02-07T00:11:25.164Z,0.00
2019-02-07T00:12:25.192Z,0.00
2019-02-07T00:13:25.144Z,0.00
2019-02-07T00:14:25.117Z,0.00
2019-02-07T00:15:25.116Z,0.00
2019-02-07T00:16:25.098Z,0.00
2019-02-07T00:17:25.084Z,0.00
2019-02-07T00:18:25.062Z,0.00
2019-02-07T00:19:25.067Z,0.00
2019-02-07T00:20:25.055Z,0.00
2019-02-07T00:21:25.064Z,0.00
2019-02-07T00:22:25.043Z,0.00
2019-02-07T00:23:25.002Z,0.00
2019-02-07T00:24:24.996Z,0.00
2019-02-07T00:25:25.001Z,0.00
2019-02-07T00:26:24.985Z,0.00
2019-02-07T00:27:24.962Z,0.00
2019-02-07T00:28:24.948Z,0.00
2019-02-07T00:29:24.934Z,0.00
2019-02-07T00:30:24.996Z,0.00
2019-02-07T00:31:24.921Z,0.00
2019-02-07T00:32:24.913Z,0.00
2019-02-07T00:33:24.895Z,0.00
2019-02-07T00:34:24.919Z,0.00
2019-02-07T00:35:24.909Z,0.00
2019-02-07T00:36:24.871Z,0.00
2019-02-07T00:37:24.871Z,0.00
2019-02-07T00:38:24.839Z,0.00
2019-02-07T00:39:24.832Z,0.00
2019-02-07T00:40:24.825Z,0.00
2019-02-07T00:41:24.803Z,0.00
2019-02-07T00:42:24.789Z,0.00
2019-02-07T00:43:24.779Z,0.00
2019-02-07T00:44:24.778Z,0.00
2019-02-07T00:45:24.775Z,0.00
2019-02-07T00:46:24.745Z,0.00
2019-02-07T00:47:24.734Z,0.00
2019-02-07T00:48:24.724Z,0.00
2019-02-07T00:49:24.717Z,0.00
2019-02-07T00:50:24.740Z,0.00
2019-02-07T00:51:24.691Z,0.00
2019-02-07T00:52:24.679Z,0.00
2019-02-07T00:53:24.672Z,0.00
2019-02-07T00:54:24.666Z,0.00
2019-02-07T00:55:24.653Z,0.00
2019-02-07T00:56:24.647Z,0.00
2019-02-07T00:57:24.626Z,0.00
2019-02-07T00:58:24.613Z,0.00
2019-02-07T00:59:24.598Z,0.00
2019-02-07T01:00:24.621Z,0.00
2019-02-07T01:01:24.635Z,0.00
2019-02-07T01:02:24.567Z,0.00
2019-02-07T01:03:24.554Z,0.00
2019-02-07T01:04:24.546Z,0.00
2019-02-07T01:05:24.556Z,0.00
2019-02-07T01:06:24.536Z,0.00
2019-02-07T01:07:24.517Z,0.00
2019-02-07T01:08:24.512Z,0.00
2019-02-07T01:09:24.544Z,0.00
2019-02-07T01:10:24.493Z,0.00
2019-02-07T01:11:24.486Z,0.00
2019-02-07T01:12:24.459Z,0.00
2019-02-07T01:13:24.452Z,0.00
2019-02-07T01:14:24.431Z,0.00
2019-02-07T01:15:24.423Z,0.00
2019-02-07T01:16:24.435Z,0.00
2019-02-07T01:17:24.412Z,0.00
2019-02-07T01:18:24.386Z,0.00
2019-02-07T01:19:24.385Z,0.00
2019-02-07T01:20:24.368Z,0.00
2019-02-07T01:21:24.388Z,0.00
2019-02-07T01:22:24.342Z,0.00
2019-02-07T01:23:24.366Z,0.00
2019-02-07T01:24:24.322Z,0.00
2019-02-07T01:25:24.319Z,0.00
2019-02-07T01:26:24.313Z,0.00
2019-02-07T01:27:24.286Z,0.00
2019-02-07T01:28:24.273Z,0.00
2019-02-07T01:29:24.273Z,0.00
2019-02-07T01:30:24.294Z,0.00
2019-02-07T01:31:24.260Z,0.00
2019-02-07T01:32:24.230Z,0.00
2019-02-07T01:33:24.227Z,0.00
2019-02-07T01:34:24.219Z,0.00
2019-02-07T01:35:24.194Z,0.00
2019-02-07T01:36:24.203Z,0.00
2019-02-07T01:37:24.186Z,0.00
2019-02-07T01:38:24.167Z,0.00
2019-02-07T01:39:24.151Z,0.00
2019-02-07T01:40:24.145Z,0.00
2019-02-07T01:41:24.199Z,0.00
2019-02-07T01:42:24.136Z,0.00
2019-02-07T01:43:24.151Z,0.00
2019-02-07T01:44:24.120Z,0.00
2019-02-07T01:45:24.151Z,0.00
2019-02-07T01:46:24.133Z,0.00
2019-02-07T01:47:24.122Z,0.00
2019-02-07T01:48:24.089Z,0.00
2019-02-07T01:49:24.906Z,0.00
2019-02-07T01:50:24.059Z,0.00
2019-02-07T01:51:24.021Z,0.00
2019-02-07T01:52:24.025Z,0.00
2019-02-07T01:53:23.995Z,0.00
2019-02-07T01:54:24.049Z,0.00
2019-02-07T01:55:23.978Z,0.00
2019-02-07T01:56:23.961Z,0.00
2019-02-07T01:57:23.969Z,0.00
2019-02-07T01:58:23.939Z,0.00
2019-02-07T01:59:23.927Z,0.00
2019-02-07T02:00:23.919Z,0.00
2019-02-07T02:01:23.910Z,0.00
2019-02-07T02:02:23.935Z,0.00
2019-02-07T02:03:23.886Z,0.00
2019-02-07T02:04:23.871Z,0.00
2019-02-07T02:05:23.859Z,0.00
2019-02-07T02:06:23.856Z,0.00
2019-02-07T02:07:23.867Z,0.00
2019-02-07T02:08:23.829Z,0.00
2019-02-07T02:09:23.820Z,0.00
2019-02-07T02:10:23.807Z,0.00
2019-02-07T02:11:23.793Z,0.00
2019-02-07T02:12:23.797Z,0.00
2019-02-07T02:13:23.780Z,0.00
2019-02-07T02:14:23.766Z,0.00
2019-02-07T02:15:25.083Z,0.00
2019-02-07T02:16:24.217Z,0.00
2019-02-07T02:17:23.740Z,0.00
2019-02-07T02:18:23.717Z,0.00
2019-02-07T02:19:23.761Z,0.00
2019-02-07T02:20:23.761Z,0.00
2019-02-07T02:21:23.717Z,0.00
2019-02-07T02:22:23.710Z,0.00
2019-02-07T02:23:23.677Z,0.00
2019-02-07T02:24:23.709Z,0.00
2019-02-07T02:25:23.633Z,0.00
2019-02-07T02:26:23.634Z,0.00
2019-02-07T02:27:23.696Z,0.00
2019-02-07T02:28:23.612Z,0.00
2019-02-07T02:29:23.587Z,0.00
2019-02-07T02:30:23.699Z,0.00
2019-02-07T02:31:23.583Z,0.00
2019-02-07T02:32:23.600Z,0.00
2019-02-07T02:33:23.584Z,0.00
2019-02-07T02:34:23.542Z,0.00
2019-02-07T02:35:23.541Z,0.00
2019-02-07T02:36:23.535Z,0.00
2019-02-07T02:37:23.525Z,0.00
2019-02-07T02:38:23.511Z,0.00
2019-02-07T02:39:23.480Z,0.00
2019-02-07T02:40:23.493Z,0.00
2019-02-07T02:41:23.472Z,0.00
2019-02-07T02:42:23.445Z,0.00
2019-02-07T02:43:23.452Z,0.00
2019-02-07T02:44:23.420Z,0.00
2019-02-07T02:45:23.418Z,0.00
2019-02-07T02:46:23.417Z,0.00
2019-02-07T02:47:23.386Z,0.00
2019-02-07T02:48:23.395Z,0.00
2019-02-07T02:49:23.360Z,0.00
2019-02-07T02:50:23.352Z,0.00
2019-02-07T02:51:23.340Z,0.00
2019-02-07T02:52:23.347Z,0.00
2019-02-07T02:53:23.366Z,0.00
2019-02-07T02:54:23.309Z,0.00
2019-02-07T02:55:23.328Z,0.00
2019-02-07T02:56:23.296Z,0.00
2019-02-07T02:57:23.296Z,0.00
2019-02-07T02:58:23.298Z,0.00
2019-02-07T02:59:23.267Z,0.00
2019-02-07T03:00:23.255Z,0.00
2019-02-07T03:01:23.222Z,0.00
2019-02-07T03:02:23.220Z,0.00
2019-02-07T03:03:23.214Z,0.00
2019-02-07T03:04:23.275Z,0.00
2019-02-07T03:05:23.183Z,0.00
2019-02-07T03:06:23.194Z,0.00
2019-02-07T03:07:23.165Z,0.00
2019-02-07T03:08:23.161Z,0.00
2019-02-07T03:09:23.133Z,0.00
2019-02-07T03:10:23.133Z,0.00
2019-02-07T03:11:23.120Z,0.00
2019-02-07T03:12:23.131Z,0.00
2019-02-07T03:13:23.103Z,0.00
2019-02-07T03:14:23.095Z,0.00
2019-02-07T03:15:23.098Z,0.00
2019-02-07T03:16:23.055Z,0.00
2019-02-07T03:17:23.060Z,0.00
2019-02-07T03:18:23.065Z,0.00
2019-02-07T03:19:23.038Z,0.00
2019-02-07T03:20:23.024Z,0.00
2019-02-07T03:21:23.000Z,0.00
2019-02-07T03:22:22.994Z,0.00
2019-02-07T03:23:23.009Z,0.00
2019-02-07T03:24:22.976Z,0.00
2019-02-07T03:25:22.949Z,0.00
2019-02-07T03:26:22.954Z,0.00
2019-02-07T03:27:22.934Z,0.00
2019-02-07T03:28:22.925Z,0.00
2019-02-07T03:29:22.925Z,0.00
2019-02-07T03:30:23.158Z,0.00
2019-02-07T03:31:22.883Z,0.00
2019-02-07T03:32:23.135Z,0.00
2019-02-07T03:33:22.859Z,0.00
2019-02-07T03:34:22.866Z,0.00
2019-02-07T03:35:22.838Z,0.00
2019-02-07T03:36:22.828Z,0.00
2019-02-07T03:37:22.817Z,0.00
2019-02-07T03:38:22.815Z,0.00
2019-02-07T03:39:22.801Z,0.00
2019-02-07T03:40:22.779Z,0.00
2019-02-07T03:41:22.764Z,0.00
2019-02-07T03:42:22.755Z,0.00
2019-02-07T03:43:22.757Z,0.00
2019-02-07T03:44:22.747Z,0.00
2019-02-07T03:45:22.731Z,0.00
2019-02-07T03:46:22.706Z,0.00
2019-02-07T03:47:22.700Z,0.00
2019-02-07T03:48:22.697Z,0.00
2019-02-07T03:49:22.698Z,0.00
2019-02-07T03:50:22.688Z,0.00
2019-02-07T03:51:22.692Z,0.00
2019-02-07T03:52:22.653Z,0.00
2019-02-07T03:53:22.632Z,0.00
2019-02-07T03:54:22.637Z,0.00
2019-02-07T03:55:22.628Z,0.00
2019-02-07T03:56:22.642Z,0.00
2019-02-07T03:57:22.620Z,0.00
2019-02-07T03:58:22.592Z,0.00
2019-02-07T03:59:22.589Z,0.00
2019-02-07T04:00:22.594Z,0.00
2019-02-07T04:01:22.556Z,0.00
2019-02-07T04:02:22.551Z,0.00
2019-02-07T04:03:22.518Z,0.00
2019-02-07T04:04:22.518Z,0.00
2019-02-07T04:05:22.496Z,0.00
2019-02-07T04:06:22.519Z,0.00
2019-02-07T04:07:22.496Z,0.00
2019-02-07T04:08:22.484Z,0.00
2019-02-07T04:09:22.486Z,0.00
2019-02-07T04:10:22.453Z,0.00
2019-02-07T04:11:22.435Z,0.00
2019-02-07T04:12:22.413Z,0.00
2019-02-07T04:13:22.419Z,0.00
2019-02-07T04:14:22.448Z,0.00
2019-02-07T04:15:22.439Z,0.00
2019-02-07T04:16:22.373Z,0.00
2019-02-07T04:17:22.358Z,0.00
2019-02-07T04:18:22.346Z,0.00
2019-02-07T04:19:22.353Z,0.00
2019-02-07T04:20:22.337Z,0.00
2019-02-07T04:21:22.314Z,0.00
2019-02-07T04:22:22.423Z,0.00
2019-02-07T04:23:22.304Z,0.00
2019-02-07T04:24:22.291Z,0.00
2019-02-07T04:25:22.325Z,0.00
2019-02-07T04:26:22.255Z,0.00
2019-02-07T04:27:22.245Z,0.00
2019-02-07T04:28:22.233Z,0.00
2019-02-07T04:29:22.223Z,0.00
2019-02-07T04:30:22.252Z,0.00
2019-02-07T04:31:22.215Z,0.00
2019-02-07T04:32:22.194Z,0.00
2019-02-07T04:33:22.185Z,0.00
2019-02-07T04:34:22.163Z,0.00
2019-02-07T04:35:22.167Z,0.00
2019-02-07T04:36:22.183Z,0.00
2019-02-07T04:37:22.125Z,0.00
2019-02-07T04:38:22.115Z,0.00
2019-02-07T04:39:22.113Z,0.00
2019-02-07T04:40:22.128Z,0.00
2019-02-07T04:41:22.091Z,0.00
2019-02-07T04:42:22.068Z,0.00
2019-02-07T04:43:22.063Z,0.00
2019-02-07T04:44:22.053Z,0.00
2019-02-07T04:45:22.056Z,0.00
2019-02-07T04:46:27.032Z,0.00
2019-02-07T04:47:23.011Z,0.00
2019-02-07T04:48:22.002Z,0.00
2019-02-07T04:49:21.993Z,0.00
2019-02-07T04:50:22.002Z,0.00
2019-02-07T04:51:21.968Z,0.00
2019-02-07T04:52:21.960Z,0.00
2019-02-07T04:53:21.947Z,0.00
2019-02-07T04:54:21.933Z,0.00
2019-02-07T04:55:21.936Z,0.00
2019-02-07T04:56:21.913Z,0.00
2019-02-07T04:57:21.899Z,0.00
2019-02-07T04:58:21.895Z,0.00
2019-02-07T04:59:21.885Z,0.00
2019-02-07T05:00:21.903Z,0.00
2019-02-07T05:01:21.862Z,0.00
2019-02-07T05:02:21.852Z,0.00
2019-02-07T05:03:21.829Z,0.00
2019-02-07T05:04:21.826Z,0.00
2019-02-07T05:05:21.820Z,0.00
2019-02-07T05:06:21.807Z,0.00
2019-02-07T05:07:21.779Z,0.00
2019-02-07T05:08:21.775Z,0.00
2019-02-07T05:09:21.763Z,0.00
2019-02-07T05:10:21.805Z,0.00
2019-02-07T05:11:21.747Z,0.00
2019-02-07T05:12:21.722Z,0.00
2019-02-07T05:13:21.728Z,0.00
2019-02-07T05:14:21.700Z,0.00
2019-02-07T05:15:21.688Z,0.00
2019-02-07T05:16:21.700Z,0.00
2019-02-07T05:17:21.669Z,0.00
2019-02-07T05:18:21.678Z,0.00
2019-02-07T05:19:21.643Z,0.00
2019-02-07T05:20:21.631Z,0.00
2019-02-07T05:21:21.638Z,0.00
2019-02-07T05:22:21.621Z,0.00
2019-02-07T05:23:21.596Z,0.00
2019-02-07T05:24:21.611Z,0.00
2019-02-07T05:25:21.574Z,0.00
2019-02-07T05:26:21.575Z,0.00
2019-02-07T05:27:21.549Z,0.00
2019-02-07T05:28:21.539Z,0.00
2019-02-07T05:29:21.527Z,0.00
2019-02-07T05:30:21.524Z,0.00
2019-02-07T05:31:21.523Z,0.00
2019-02-07T05:32:21.497Z,0.00
2019-02-07T05:33:21.486Z,0.00
2019-02-07T05:34:22.372Z,0.00
2019-02-07T05:35:21.460Z,0.00
2019-02-07T05:36:21.479Z,0.00
2019-02-07T05:37:21.438Z,0.00
2019-02-07T05:38:21.452Z,0.00
2019-02-07T05:39:21.430Z,0.00
2019-02-07T05:40:21.426Z,0.00
2019-02-07T05:41:21.400Z,0.00
2019-02-07T05:42:22.691Z,0.00
2019-02-07T05:43:21.375Z,0.00
2019-02-07T05:44:21.382Z,0.00
2019-02-07T05:45:21.345Z,0.00
2019-02-07T05:46:21.333Z,0.00
2019-02-07T05:47:21.342Z,0.00
2019-02-07T05:48:21.336Z,0.00
2019-02-07T05:49:21.352Z,0.00
2019-02-07T05:50:21.292Z,0.00
2019-02-07T05:51:21.275Z,0.00
2019-02-07T05:52:21.311Z,0.00
2019-02-07T05:53:21.263Z,0.00
2019-02-07T05:54:21.240Z,0.00
2019-02-07T05:55:21.260Z,0.00
2019-02-07T05:56:21.218Z,0.00
2019-02-07T05:57:21.223Z,0.00
2019-02-07T05:58:21.195Z,0.00
2019-02-07T05:59:21.183Z,0.00
2019-02-07T06:00:21.180Z,0.00
2019-02-07T06:01:21.180Z,0.00
2019-02-07T06:02:21.171Z,0.00
2019-02-07T06:03:21.144Z,0.00
2019-02-07T06:04:23.734Z,0.00
2019-02-07T06:05:21.126Z,0.00
2019-02-07T06:06:21.135Z,0.00
2019-02-07T06:07:21.155Z,0.00
2019-02-07T06:08:21.093Z,0.00
2019-02-07T06:09:21.070Z,0.00
2019-02-07T06:10:21.093Z,0.00
2019-02-07T06:11:21.080Z,0.00
2019-02-07T06:12:21.075Z,0.00
2019-02-07T06:13:21.024Z,4.00
2019-02-07T06:14:21.012Z,4.00
2019-02-07T06:15:21.001Z,0.00
2019-02-07T06:16:21.011Z,4.00
2019-02-07T06:17:20.982Z,4.00
2019-02-07T06:18:20.988Z,4.00
2019-02-07T06:19:20.966Z,4.00
2019-02-07T06:20:20.954Z,4.00
2019-02-07T06:21:20.944Z,4.00
2019-02-07T06:22:20.931Z,8.00
2019-02-07T06:23:20.956Z,8.00
2019-02-07T06:24:20.935Z,8.00
2019-02-07T06:25:20.931Z,12.00
2019-02-07T06:26:20.886Z,12.00
2019-02-07T06:27:20.893Z,16.00
2019-02-07T06:28:20.892Z,20.00
2019-02-07T06:29:20.868Z,24.00
2019-02-07T06:30:20.895Z,24.00
2019-02-07T06:31:20.820Z,32.00
2019-02-07T06:32:20.808Z,36.00
2019-02-07T06:33:20.837Z,40.00
2019-02-07T06:34:28.648Z,44.00
2019-02-07T06:35:21.789Z,48.00
2019-02-07T06:36:20.782Z,56.00
2019-02-07T06:37:20.759Z,60.00
2019-02-07T06:38:20.757Z,64.00
2019-02-07T06:39:20.729Z,72.00
2019-02-07T06:40:20.732Z,76.00
2019-02-07T06:41:20.708Z,80.00
2019-02-07T06:42:20.703Z,88.00
2019-02-07T06:43:20.713Z,92.00
2019-02-07T06:44:20.695Z,100.00
2019-02-07T06:45:20.738Z,108.00
2019-02-07T06:46:20.691Z,112.00
2019-02-07T06:47:20.645Z,124.00
2019-02-07T06:48:20.654Z,128.00
2019-02-07T06:49:20.626Z,140.00
2019-02-07T06:50:20.662Z,148.00
2019-02-07T06:51:20.599Z,156.00
2019-02-07T06:52:20.581Z,164.00
2019-02-07T06:53:20.584Z,168.00
2019-02-07T06:54:20.598Z,180.00
2019-02-07T06:55:20.568Z,188.00
2019-02-07T06:56:20.536Z,200.00
2019-02-07T06:57:20.602Z,208.00
2019-02-07T06:58:20.514Z,216.00
2019-02-07T06:59:20.516Z,228.00
2019-02-07T07:00:20.493Z,240.00
2019-02-07T07:01:20.531Z,252.00
2019-02-07T07:02:20.496Z,264.00
2019-02-07T07:03:20.455Z,276.00
2019-02-07T07:04:20.458Z,292.00
2019-02-07T07:05:20.455Z,308.00
2019-02-07T07:06:20.438Z,320.00
2019-02-07T07:07:20.406Z,328.00
2019-02-07T07:08:20.442Z,336.00
2019-02-07T07:09:20.412Z,340.00
2019-02-07T07:10:20.386Z,352.00
2019-02-07T07:11:20.375Z,356.00
2019-02-07T07:12:20.351Z,368.00
2019-02-07T07:13:20.344Z,380.00
2019-02-07T07:14:20.400Z,388.00
2019-02-07T07:15:20.390Z,400.00
2019-02-07T07:16:20.311Z,408.00
2019-02-07T07:17:25.538Z,420.00
2019-02-07T07:18:21.287Z,428.00
2019-02-07T07:19:20.314Z,444.00
2019-02-07T07:20:20.288Z,456.00
2019-02-07T07:21:20.252Z,472.00
2019-02-07T07:22:20.236Z,484.00
2019-02-07T07:23:20.236Z,500.00
2019-02-07T07:24:20.228Z,516.00
2019-02-07T07:25:20.210Z,532.00
2019-02-07T07:26:20.191Z,552.00
2019-02-07T07:27:20.179Z,568.00
2019-02-07T07:28:20.179Z,592.00
2019-02-07T07:29:20.174Z,608.00
2019-02-07T07:30:20.147Z,636.00
2019-02-07T07:31:20.144Z,652.00
2019-02-07T07:32:20.122Z,676.00
2019-02-07T07:33:20.113Z,696.00
2019-02-07T07:34:20.142Z,716.00
2019-02-07T07:35:20.096Z,740.00
2019-02-07T07:36:20.086Z,764.00
2019-02-07T07:37:20.068Z,788.00
2019-02-07T07:38:20.055Z,816.00
2019-02-07T07:39:20.043Z,840.00
2019-02-07T07:40:20.070Z,868.00
2019-02-07T07:41:20.023Z,888.00
2019-02-07T07:42:20.012Z,908.00
2019-02-07T07:43:20.000Z,924.00
2019-02-07T07:44:19.987Z,940.00
2019-02-07T07:45:19.991Z,956.00
2019-02-07T07:46:19.978Z,972.00
2019-02-07T07:47:19.954Z,984.00
2019-02-07T07:48:19.954Z,1000.00
2019-02-07T07:49:19.934Z,1020.00
2019-02-07T07:50:19.935Z,1044.00
2019-02-07T07:51:19.909Z,1068.00
2019-02-07T07:52:19.913Z,1088.00
2019-02-07T07:53:19.892Z,1108.00
2019-02-07T07:54:20.519Z,1128.00
2019-02-07T07:55:19.894Z,1148.00
2019-02-07T07:56:19.852Z,1172.00
2019-02-07T07:57:19.846Z,1204.00
2019-02-07T07:58:19.845Z,1216.00
2019-02-07T07:59:19.822Z,1236.00
2019-02-07T08:00:19.829Z,1252.00
2019-02-07T08:01:19.797Z,1272.00
2019-02-07T08:02:19.787Z,1292.00
2019-02-07T08:03:19.774Z,1316.00
2019-02-07T08:04:19.771Z,1336.00
2019-02-07T08:05:19.797Z,1364.00
2019-02-07T08:06:19.740Z,1396.00
2019-02-07T08:07:19.729Z,1428.00
2019-02-07T08:08:19.726Z,1444.00
2019-02-07T08:09:19.708Z,1452.00
2019-02-07T08:10:19.706Z,1456.00
2019-02-07T08:11:19.705Z,1472.00
2019-02-07T08:12:19.673Z,1468.00
2019-02-07T08:13:19.663Z,1460.00
2019-02-07T08:14:19.656Z,1436.00
2019-02-07T08:15:19.641Z,1448.00
2019-02-07T08:16:19.660Z,1468.00
2019-02-07T08:17:19.619Z,1468.00
2019-02-07T08:18:19.606Z,1472.00
2019-02-07T08:19:19.598Z,1480.00
2019-02-07T08:20:19.584Z,1508.00
2019-02-07T08:21:19.603Z,1544.00
2019-02-07T08:22:19.563Z,1584.00
2019-02-07T08:23:19.550Z,1620.00
2019-02-07T08:24:19.537Z,1656.00
2019-02-07T08:25:19.536Z,1672.00
2019-02-07T08:26:19.530Z,1688.00
2019-02-07T08:27:19.506Z,1712.00
2019-02-07T08:28:19.513Z,1740.00
2019-02-07T08:29:19.482Z,1768.00
2019-02-07T08:30:19.481Z,1804.00
2019-02-07T08:31:19.475Z,1840.00
2019-02-07T08:32:19.456Z,1884.00
2019-02-07T08:33:19.445Z,1916.00
2019-02-07T08:34:19.426Z,1932.00
2019-02-07T08:35:19.415Z,1940.00
2019-02-07T08:36:19.431Z,1940.00
2019-02-07T08:37:19.394Z,1932.00
2019-02-07T08:38:19.409Z,1920.00
2019-02-07T08:39:19.373Z,1908.00
2019-02-07T08:40:19.360Z,1900.00
2019-02-07T08:41:19.348Z,1880.00
2019-02-07T08:42:19.352Z,1872.00
2019-02-07T08:43:19.326Z,1856.00
2019-02-07T08:44:19.325Z,1840.00
2019-02-07T08:45:19.313Z,1816.00
2019-02-07T08:46:19.310Z,1800.00
2019-02-07T08:47:19.316Z,1796.00
2019-02-07T08:48:19.270Z,1804.00
2019-02-07T08:49:19.263Z,1820.00
2019-02-07T08:50:19.270Z,1840.00
2019-02-07T08:51:19.246Z,1864.00
2019-02-07T08:52:19.278Z,1888.00
2019-02-07T08:53:19.238Z,1908.00
2019-02-07T08:54:19.206Z,1920.00
2019-02-07T08:55:21.832Z,1928.00
2019-02-07T08:56:19.198Z,1928.00
2019-02-07T08:57:19.187Z,1932.00
2019-02-07T08:58:19.160Z,1944.00
2019-02-07T08:59:19.149Z,1964.00
2019-02-07T09:00:19.137Z,1992.00
2019-02-07T09:01:19.125Z,2016.00
2019-02-07T09:02:19.142Z,2044.00
2019-02-07T09:03:19.103Z,2080.00
2019-02-07T09:04:19.092Z,2108.00
2019-02-07T09:05:19.083Z,2140.00
2019-02-07T09:06:19.072Z,2176.00
2019-02-07T09:07:19.079Z,2208.00
2019-02-07T09:08:19.068Z,2236.00
2019-02-07T09:09:19.040Z,2264.00
2019-02-07T09:10:19.031Z,2292.00
2019-02-07T09:11:19.014Z,2320.00
2019-02-07T09:12:19.051Z,2348.00
2019-02-07T09:13:19.000Z,2372.00
2019-02-07T09:14:19.091Z,2384.00
2019-02-07T09:15:18.969Z,2392.00
2019-02-07T09:16:18.958Z,2400.00
2019-02-07T09:17:18.962Z,2400.00
2019-02-07T09:18:18.944Z,2396.00
2019-02-07T09:19:18.926Z,2384.00
2019-02-07T09:20:18.953Z,2380.00
2019-02-07T09:21:18.903Z,2368.00
2019-02-07T09:22:18.905Z,2356.00
2019-02-07T09:23:18.882Z,2344.00
2019-02-07T09:24:18.874Z,2328.00
2019-02-07T09:25:18.859Z,2324.00
2019-02-07T09:26:18.866Z,2308.00
2019-02-07T09:27:18.910Z,2292.00
2019-02-07T09:28:18.831Z,2288.00
2019-02-07T09:29:18.814Z,2280.00
2019-02-07T09:30:18.814Z,2272.00
2019-02-07T09:31:18.801Z,2268.00
2019-02-07T09:32:18.780Z,2264.00
2019-02-07T09:33:18.791Z,2260.00
2019-02-07T09:34:18.759Z,2256.00
2019-02-07T09:35:18.752Z,2256.00
2019-02-07T09:36:18.752Z,2260.00
2019-02-07T09:37:18.738Z,2264.00
2019-02-07T09:38:18.726Z,2264.00
2019-02-07T09:39:18.712Z,2260.00
2019-02-07T09:40:18.691Z,2256.00
2019-02-07T09:41:18.683Z,2252.00
2019-02-07T09:42:18.669Z,2248.00
2019-02-07T09:43:18.698Z,2248.00
2019-02-07T09:44:18.646Z,2248.00
2019-02-07T09:45:18.635Z,2244.00
2019-02-07T09:46:18.635Z,2236.00
2019-02-07T09:47:18.616Z,2232.00
2019-02-07T09:48:21.688Z,2224.00
2019-02-07T09:49:18.592Z,2220.00
2019-02-07T09:50:18.579Z,2220.00
2019-02-07T09:51:18.572Z,2224.00
2019-02-07T09:52:18.562Z,2232.00
2019-02-07T09:53:23.973Z,2244.00
2019-02-07T09:54:19.534Z,2260.00
2019-02-07T09:55:18.525Z,2280.00
2019-02-07T09:56:18.525Z,2304.00
2019-02-07T09:57:18.502Z,2332.00
2019-02-07T09:58:18.531Z,2364.00
2019-02-07T09:59:18.503Z,2396.00
2019-02-07T10:00:18.487Z,2416.00
2019-02-07T10:01:18.457Z,2440.00
2019-02-07T10:02:18.447Z,2472.00
2019-02-07T10:03:18.436Z,2496.00
2019-02-07T10:04:18.443Z,2536.00
2019-02-07T10:05:18.441Z,2568.00
2019-02-07T10:06:18.402Z,2604.00
2019-02-07T10:07:18.393Z,2644.00
2019-02-07T10:08:18.380Z,2676.00
2019-02-07T10:09:18.391Z,2708.00
2019-02-07T10:10:18.359Z,2732.00
2019-02-07T10:11:18.364Z,2744.00
2019-02-07T10:12:18.338Z,2732.00
2019-02-07T10:13:18.325Z,2708.00
2019-02-07T10:14:18.332Z,2676.00
2019-02-07T10:15:18.303Z,2656.00
2019-02-07T10:16:18.295Z,2644.00
2019-02-07T10:17:18.291Z,2632.00
2019-02-07T10:18:18.271Z,2608.00
2019-02-07T10:19:18.272Z,2580.00
2019-02-07T10:20:18.248Z,2556.00
2019-02-07T10:21:18.241Z,2544.00
2019-02-07T10:22:18.229Z,2540.00
2019-02-07T10:23:18.236Z,2552.00
2019-02-07T10:24:18.224Z,2568.00
2019-02-07T10:25:18.193Z,2584.00
2019-02-07T10:26:18.205Z,2600.00
2019-02-07T10:27:18.174Z,2616.00
2019-02-07T10:28:18.170Z,2648.00
2019-02-07T10:29:18.181Z,2696.00
2019-02-07T10:30:18.141Z,2756.00
2019-02-07T10:31:18.128Z,2824.00
2019-02-07T10:32:18.123Z,2900.00
2019-02-07T10:33:18.105Z,2984.00
2019-02-07T10:34:18.820Z,3056.00
2019-02-07T10:35:22.790Z,3120.00
2019-02-07T10:36:20.319Z,3176.00
2019-02-07T10:37:18.063Z,3232.00
2019-02-07T10:38:18.050Z,3280.00
2019-02-07T10:39:18.039Z,3324.00
2019-02-07T10:40:18.063Z,3392.00
2019-02-07T10:41:18.022Z,3480.00
2019-02-07T10:42:18.010Z,3556.00
2019-02-07T10:43:18.003Z,3600.00
2019-02-07T10:44:17.985Z,3616.00
2019-02-07T10:45:17.991Z,3644.00
2019-02-07T10:46:17.971Z,3664.00
2019-02-07T10:47:17.952Z,3696.00
2019-02-07T10:48:17.949Z,3732.00
2019-02-07T10:49:17.932Z,3760.00
2019-02-07T10:50:17.943Z,3780.00
2019-02-07T10:51:17.919Z,3772.00
2019-02-07T10:52:17.900Z,3748.00
2019-02-07T10:53:17.888Z,3728.00
2019-02-07T10:54:17.879Z,3728.00
2019-02-07T10:55:17.881Z,3708.00
2019-02-07T10:56:17.877Z,3676.00
2019-02-07T10:57:17.851Z,3656.00
2019-02-07T10:58:17.834Z,3660.00
2019-02-07T10:59:17.823Z,3680.00
2019-02-07T11:00:17.826Z,3712.00
2019-02-07T11:01:17.802Z,3736.00
2019-02-07T11:02:17.804Z,3784.00
2019-02-07T11:03:17.798Z,3852.00
2019-02-07T11:04:17.769Z,3892.00
2019-02-07T11:05:17.775Z,3856.00
2019-02-07T11:06:17.749Z,3824.00
2019-02-07T11:07:17.738Z,3752.00
2019-02-07T11:08:17.743Z,3668.00
2019-02-07T11:09:17.716Z,3556.00
2019-02-07T11:10:17.725Z,3452.00
2019-02-07T11:11:17.695Z,3336.00
2019-02-07T11:12:17.683Z,3216.00
2019-02-07T11:13:17.673Z,3092.00
2019-02-07T11:14:17.669Z,2988.00
2019-02-07T11:15:17.664Z,2876.00
2019-02-07T11:16:17.641Z,2796.00
2019-02-07T11:17:17.629Z,2740.00
2019-02-07T11:18:17.625Z,2704.00
2019-02-07T11:19:21.418Z,2692.00
2019-02-07T11:20:17.636Z,2684.00
2019-02-07T11:21:17.596Z,2672.00
2019-02-07T11:22:17.580Z,2668.00
2019-02-07T11:23:17.568Z,2672.00
2019-02-07T11:24:17.557Z,2656.00
2019-02-07T11:25:17.543Z,2640.00
2019-02-07T11:26:17.559Z,2624.00
2019-02-07T11:27:17.527Z,2612.00
2019-02-07T11:28:17.516Z,2596.00
2019-02-07T11:29:17.500Z,2576.00
2019-02-07T11:30:17.490Z,2552.00
2019-02-07T11:31:17.493Z,2528.00
2019-02-07T11:32:17.472Z,2504.00
2019-02-07T11:33:17.480Z,2484.00
2019-02-07T11:34:17.449Z,2464.00
2019-02-07T11:35:17.438Z,2452.00
2019-02-07T11:36:17.445Z,2444.00
2019-02-07T11:37:17.426Z,2424.00
2019-02-07T11:38:17.410Z,2392.00
2019-02-07T11:39:17.402Z,2356.00
2019-02-07T11:40:17.384Z,2316.00
2019-02-07T11:41:17.390Z,2288.00
2019-02-07T11:42:17.363Z,2272.00
2019-02-07T11:43:17.367Z,2264.00
2019-02-07T11:44:17.347Z,2264.00
2019-02-07T11:45:17.342Z,2280.00
2019-02-07T11:46:17.335Z,2288.00
2019-02-07T11:47:17.307Z,2296.00
2019-02-07T11:48:17.298Z,2292.00
2019-02-07T11:49:17.285Z,2288.00
2019-02-07T11:50:17.299Z,2284.00
2019-02-07T11:51:17.285Z,2276.00
2019-02-07T11:52:17.257Z,2268.00
2019-02-07T11:53:17.243Z,2260.00
2019-02-07T11:54:17.232Z,2248.00
2019-02-07T11:55:17.224Z,2252.00
2019-02-07T11:56:17.236Z,2268.00
2019-02-07T11:57:17.201Z,2280.00
2019-02-07T11:58:17.191Z,2292.00
2019-02-07T11:59:17.182Z,2300.00
2019-02-07T12:00:17.186Z,2312.00
2019-02-07T12:01:17.170Z,2324.00
2019-02-07T12:02:17.177Z,2340.00
2019-02-07T12:03:17.136Z,2356.00
2019-02-07T12:04:17.137Z,2388.00
2019-02-07T12:05:17.384Z,2424.00
2019-02-07T12:06:17.135Z,2452.00
2019-02-07T12:07:17.092Z,2476.00
2019-02-07T12:08:17.100Z,2496.00
2019-02-07T12:09:17.075Z,2512.00
2019-02-07T12:10:17.059Z,2520.00
2019-02-07T12:11:17.086Z,2524.00
2019-02-07T12:12:17.041Z,2520.00
2019-02-07T12:13:17.030Z,2520.00
2019-02-07T12:14:17.042Z,2532.00
2019-02-07T12:15:17.009Z,2544.00
2019-02-07T12:16:16.994Z,2556.00
2019-02-07T12:17:16.997Z,2556.00
2019-02-07T12:18:16.975Z,2552.00
2019-02-07T12:19:18.318Z,2564.00
2019-02-07T12:20:16.973Z,2568.00
2019-02-07T12:21:16.944Z,2548.00
2019-02-07T12:22:16.949Z,2544.00
2019-02-07T12:23:16.921Z,2532.00
2019-02-07T12:24:16.920Z,2532.00
2019-02-07T12:25:17.006Z,2536.00
2019-02-07T12:26:16.950Z,2536.00
2019-02-07T12:27:16.890Z,2544.00
2019-02-07T12:28:16.870Z,2564.00
2019-02-07T12:29:16.855Z,2564.00
2019-02-07T12:30:16.846Z,2556.00
2019-02-07T12:31:16.840Z,2556.00
2019-02-07T12:32:16.852Z,2548.00
2019-02-07T12:33:16.811Z,2548.00
2019-02-07T12:34:16.808Z,2540.00
2019-02-07T12:35:16.790Z,2524.00
2019-02-07T12:36:16.779Z,2492.00
2019-02-07T12:37:16.810Z,2472.00
2019-02-07T12:38:16.757Z,2468.00
2019-02-07T12:39:16.754Z,2476.00
2019-02-07T12:40:16.736Z,2500.00
2019-02-07T12:41:16.726Z,2520.00
2019-02-07T12:42:16.715Z,2528.00
2019-02-07T12:43:17.387Z,2540.00